createdAt,value
2019-01-02T00:02:08.588Z,3.30
2019-01-02T00:04:58.406Z,3.03
2019-01-02T00:07:49.962Z,2.57
2019-01-02T00:10:40.127Z,2.70
2019-01-02T00:13:30.475Z,2.57
2019-01-02T00:16:20.636Z,2.57
2019-01-02T00:19:11.217Z,3.30
2019-01-02T00:22:01.766Z,2.20
2019-01-02T00:24:51.895Z,2.83
2019-01-02T00:27:43.850Z,3.63
2019-01-02T00:30:33.845Z,2.57
2019-01-02T00:33:23.860Z,2.70
2019-01-02T00:36:13.740Z,3.50
2019-01-02T00:39:04.621Z,2.50
2019-01-02T00:41:54.632Z,4.80
2019-01-02T00:44:45.326Z,2.47
2019-01-02T00:47:35.183Z,2.30
2019-01-02T00:50:24.982Z,2.30
2019-01-02T00:53:15.220Z,2.40
2019-01-02T00:56:05.730Z,2.70
2019-01-02T00:58:55.867Z,1.87
2019-01-02T01:01:46.282Z,2.27
2019-01-02T01:04:37.327Z,2.20
2019-01-02T01:07:27.137Z,2.20
2019-01-02T01:10:18.889Z,2.73
2019-01-02T01:13:09.071Z,2.70
2019-01-02T01:16:00.043Z,2.90
2019-01-02T01:18:50.346Z,2.83
2019-01-02T01:21:40.059Z,2.03
2019-01-02T01:24:30.368Z,2.90
2019-01-02T01:27:21.028Z,2.90
2019-01-02T01:30:11.396Z,2.60
2019-01-02T01:33:01.173Z,3.23
2019-01-02T01:35:50.921Z,2.30
2019-01-02T01:38:41.437Z,2.33
2019-01-02T01:41:31.233Z,2.30
2019-01-02T01:44:21.554Z,2.50
2019-01-02T01:47:11.536Z,2.57
2019-01-02T01:50:01.523Z,3.03
2019-01-02T01:52:52.894Z,2.37
2019-01-02T01:55:42.317Z,2.60
2019-01-02T01:58:32.682Z,2.87
2019-01-02T02:01:23.185Z,3.17
2019-01-02T02:04:13.608Z,4.00
2019-01-02T02:07:03.335Z,2.60
2019-01-02T02:09:53.178Z,2.87
2019-01-02T02:12:42.789Z,3.20
2019-01-02T02:15:32.610Z,2.53
2019-01-02T02:18:22.372Z,3.40
2019-01-02T02:21:12.650Z,2.50
2019-01-02T02:24:02.189Z,3.30
2019-01-02T02:26:52.367Z,2.77
2019-01-02T02:29:42.373Z,2.80
2019-01-02T02:32:32.449Z,2.50
2019-01-02T02:35:22.470Z,3.73
2019-01-02T02:38:12.628Z,3.50
2019-01-02T02:41:03.202Z,3.77
2019-01-02T02:43:53.372Z,3.50
2019-01-02T02:46:43.527Z,3.37
2019-01-02T02:49:33.463Z,3.73
2019-01-02T02:52:23.590Z,4.00
2019-01-02T02:55:21.288Z,4.37
2019-01-02T02:58:10.967Z,2.80
2019-01-02T03:01:01.082Z,2.90
2019-01-02T03:03:51.627Z,2.90
2019-01-02T03:06:42.285Z,3.40
2019-01-02T03:09:33.313Z,2.33
2019-01-02T03:12:22.944Z,3.50
2019-01-02T03:15:12.836Z,4.30
2019-01-02T03:18:02.843Z,3.40
2019-01-02T03:20:52.862Z,5.20
2019-01-02T03:23:42.906Z,3.87
2019-01-02T03:26:32.868Z,3.10
2019-01-02T03:29:22.569Z,2.83
2019-01-02T03:32:12.937Z,2.30
2019-01-02T03:35:02.926Z,3.97
2019-01-02T03:37:52.727Z,2.57
2019-01-02T03:40:42.492Z,3.90
2019-01-02T03:43:32.533Z,2.93
2019-01-02T03:46:22.044Z,3.03
2019-01-02T03:49:12.167Z,3.23
2019-01-02T03:52:01.949Z,2.80
2019-01-02T03:54:52.232Z,3.50
2019-01-02T03:57:41.908Z,5.83
2019-01-02T04:00:32.059Z,3.30
2019-01-02T04:03:22.287Z,2.70
2019-01-02T04:06:12.205Z,2.73
2019-01-02T04:09:02.053Z,3.20
2019-01-02T04:11:52.628Z,4.00
2019-01-02T04:14:42.446Z,3.00
2019-01-02T04:17:32.551Z,3.00
2019-01-02T04:20:22.726Z,3.27
2019-01-02T04:23:13.032Z,4.63
2019-01-02T04:26:03.039Z,3.00
2019-01-02T04:28:52.513Z,3.93
2019-01-02T04:31:42.590Z,3.00
2019-01-02T04:34:32.686Z,2.80
2019-01-02T04:37:22.991Z,3.03
2019-01-02T04:40:13.996Z,2.80
2019-01-02T04:43:03.709Z,2.40
2019-01-02T04:45:54.044Z,2.60
2019-01-02T04:48:43.948Z,3.10
2019-01-02T04:51:34.001Z,2.77
2019-01-02T04:54:23.920Z,6.50
2019-01-02T04:57:14.008Z,4.53
2019-01-02T05:00:04.239Z,4.47
2019-01-02T05:02:54.291Z,5.60
2019-01-02T05:05:44.769Z,7.30
2019-01-02T05:08:34.573Z,4.47
2019-01-02T05:11:24.334Z,7.40
2019-01-02T05:14:14.803Z,3.67
2019-01-02T05:17:04.600Z,3.63
2019-01-02T05:19:54.415Z,4.40
2019-01-02T05:22:44.195Z,3.60
2019-01-02T05:25:34.024Z,6.27
2019-01-02T05:28:23.617Z,3.70
2019-01-02T05:31:13.419Z,3.07
2019-01-02T05:34:03.834Z,2.50
2019-01-02T05:36:55.236Z,2.47
2019-01-02T05:39:45.321Z,2.13
2019-01-02T05:42:34.906Z,2.90
2019-01-02T05:45:24.511Z,1.70
2019-01-02T05:48:14.398Z,4.40
2019-01-02T05:51:04.485Z,2.53
2019-01-02T05:53:54.639Z,2.70
2019-01-02T05:56:44.645Z,3.70
2019-01-02T05:59:34.784Z,2.47
2019-01-02T06:02:24.940Z,2.33
2019-01-02T06:05:15.061Z,3.60
2019-01-02T06:08:05.040Z,2.00
2019-01-02T06:10:54.591Z,3.50
2019-01-02T06:13:44.496Z,2.63
2019-01-02T06:16:34.512Z,3.30
2019-01-02T06:19:24.266Z,2.30
2019-01-02T06:22:14.330Z,1.83
2019-01-02T06:25:04.315Z,2.20
2019-01-02T06:27:54.110Z,1.50
2019-01-02T06:30:43.920Z,1.60
2019-01-02T06:33:34.098Z,2.60
2019-01-02T06:36:24.191Z,2.70
2019-01-02T06:39:14.205Z,1.97
2019-01-02T06:42:03.863Z,1.97
2019-01-02T06:44:54.032Z,2.37
2019-01-02T06:47:44.313Z,1.47
2019-01-02T06:50:34.131Z,1.37
2019-01-02T06:53:24.189Z,1.80
2019-01-02T06:56:14.238Z,2.30
2019-01-02T06:59:04.057Z,2.83
2019-01-02T07:01:53.660Z,1.50
2019-01-02T07:04:43.572Z,2.57
2019-01-02T07:07:33.297Z,1.60
2019-01-02T07:10:23.230Z,1.67
2019-01-02T07:13:13.166Z,1.67
2019-01-02T07:16:03.092Z,2.20
2019-01-02T07:18:53.051Z,2.40
2019-01-02T07:21:42.770Z,1.70
2019-01-02T07:24:32.361Z,2.10
2019-01-02T07:27:22.435Z,2.30
2019-01-02T07:30:15.050Z,1.77
2019-01-02T07:33:04.668Z,2.03
2019-01-02T07:36:58.205Z,2.27
2019-01-02T07:40:35.752Z,4.77
2019-01-02T07:44:40.239Z,2.77
2019-01-02T07:48:26.142Z,2.10
2019-01-02T07:51:48.444Z,1.80
2019-01-02T07:55:40.002Z,1.63
2019-01-02T07:58:49.220Z,2.70
2019-01-02T08:02:25.612Z,2.30
2019-01-02T08:06:01.048Z,1.90
2019-01-02T08:09:52.764Z,1.87
2019-01-02T08:13:47.938Z,2.13
2019-01-02T08:17:24.692Z,1.87
2019-01-02T08:20:56.628Z,1.73
2019-01-02T08:25:01.398Z,1.67
2019-01-02T08:28:33.648Z,1.83
2019-01-02T08:32:21.496Z,1.60
2019-01-02T08:35:55.048Z,2.07
2019-01-02T08:39:34.319Z,2.10
2019-01-02T08:43:07.463Z,1.53
2019-01-02T08:46:53.138Z,1.83
2019-01-02T08:50:32.681Z,1.30
2019-01-02T08:54:26.457Z,1.73
2019-01-02T08:58:23.623Z,1.13
2019-01-02T09:02:23.820Z,1.30
2019-01-02T09:06:07.392Z,1.10
2019-01-02T09:10:03.835Z,1.40
2019-01-02T09:13:48.607Z,1.40
2019-01-02T09:17:33.975Z,0.70
2019-01-02T09:21:18.379Z,1.53
2019-01-02T09:25:11.914Z,2.40
2019-01-02T09:28:44.204Z,1.77
2019-01-02T09:32:09.705Z,1.53
2019-01-02T09:36:03.165Z,1.20
2019-01-02T09:40:09.045Z,1.43
2019-01-02T09:44:03.325Z,1.47
2019-01-02T09:47:51.675Z,1.50
2019-01-02T09:51:39.440Z,1.13
2019-01-02T09:55:28.131Z,1.80
2019-01-02T09:59:00.621Z,1.57
2019-01-02T10:02:54.941Z,1.30
2019-01-02T10:06:17.458Z,1.10
2019-01-02T10:09:50.196Z,1.30
2019-01-02T10:13:28.516Z,1.13
2019-01-02T10:17:33.398Z,1.20
2019-01-02T10:21:22.892Z,1.30
2019-01-02T10:25:01.657Z,1.40
2019-01-02T10:28:52.152Z,2.13
2019-01-02T10:32:37.498Z,2.73
2019-01-02T10:36:19.459Z,1.57
2019-01-02T10:39:52.630Z,1.60
2019-01-02T10:43:17.852Z,1.47
2019-01-02T10:46:44.100Z,1.17
2019-01-02T10:50:32.467Z,2.27
2019-01-02T10:53:45.773Z,1.40
2019-01-02T10:57:15.581Z,1.20
2019-01-02T11:01:11.004Z,0.80
2019-01-02T11:05:05.185Z,0.90
2019-01-02T11:08:36.007Z,1.43
2019-01-02T11:12:08.814Z,1.23
2019-01-02T11:15:55.422Z,1.20
2019-01-02T11:19:44.719Z,1.37
2019-01-02T11:23:34.793Z,1.20
2019-01-02T11:27:14.821Z,1.20
2019-01-02T11:31:03.373Z,1.60
2019-01-02T11:34:51.923Z,0.83
2019-01-02T11:38:46.735Z,1.30
2019-01-02T11:42:13.751Z,1.43
2019-01-02T11:45:12.883Z,1.30
2019-01-02T11:48:02.949Z,1.20
2019-01-02T11:50:52.786Z,1.37
2019-01-02T11:53:42.895Z,0.80
2019-01-02T11:56:32.385Z,1.00
2019-01-02T11:59:21.866Z,1.43
2019-01-02T12:02:11.992Z,1.20
2019-01-02T12:05:01.786Z,1.10
2019-01-02T12:07:51.415Z,1.50
2019-01-02T12:10:41.092Z,1.53
2019-01-02T12:13:31.105Z,1.10
2019-01-02T12:16:20.848Z,1.27
2019-01-02T12:19:10.118Z,1.30
2019-01-02T12:22:01.163Z,0.90
2019-01-02T12:24:50.928Z,1.03
2019-01-02T12:27:40.271Z,1.37
2019-01-02T12:30:30.336Z,1.53
2019-01-02T12:33:20.443Z,1.00
2019-01-02T12:36:10.923Z,0.97
2019-01-02T12:39:00.984Z,0.87
2019-01-02T12:41:52.308Z,1.57
2019-01-02T12:44:42.326Z,0.70
2019-01-02T12:47:31.854Z,1.20
2019-01-02T12:50:21.449Z,1.33
2019-01-02T12:53:11.360Z,1.20
2019-01-02T12:56:01.128Z,1.40
2019-01-02T12:58:51.032Z,1.13
2019-01-02T13:01:51.120Z,1.00
2019-01-02T13:05:20.555Z,0.80
2019-01-02T13:09:05.635Z,1.00
2019-01-02T13:12:32.321Z,0.90
2019-01-02T13:16:04.207Z,1.10
2019-01-02T13:19:39.307Z,1.17
2019-01-02T13:23:29.555Z,1.47
2019-01-02T13:26:30.217Z,0.80
2019-01-02T13:29:55.853Z,1.30
2019-01-02T13:33:17.690Z,1.00
2019-01-02T13:36:57.646Z,0.70
2019-01-02T13:40:37.810Z,0.83
2019-01-02T13:44:06.129Z,0.77
2019-01-02T13:48:01.890Z,0.90
2019-01-02T13:51:34.958Z,0.90
2019-01-02T13:54:26.850Z,0.93
2019-01-02T13:57:16.957Z,1.40
2019-01-02T14:00:08.343Z,1.00
2019-01-02T14:02:58.092Z,0.73
2019-01-02T14:05:51.179Z,0.90
2019-01-02T14:08:40.707Z,0.97
2019-01-02T14:11:30.603Z,0.70
2019-01-02T14:14:20.808Z,1.00
2019-01-02T14:17:10.801Z,0.90
2019-01-02T14:20:00.527Z,1.10
2019-01-02T14:22:50.593Z,1.03
2019-01-02T14:25:40.463Z,0.93
2019-01-02T14:28:30.100Z,1.53
2019-01-02T14:31:19.848Z,0.70
2019-01-02T14:34:09.675Z,0.83
2019-01-02T14:36:59.521Z,1.00
2019-01-02T14:39:49.770Z,1.30
2019-01-02T14:42:39.837Z,0.77
2019-01-02T14:45:29.828Z,0.80
2019-01-02T14:48:19.807Z,0.83
2019-01-02T14:51:09.738Z,1.10
2019-01-02T14:53:59.604Z,1.00
2019-01-02T14:56:49.505Z,1.03
2019-01-02T14:59:39.644Z,0.83
2019-01-02T15:02:29.891Z,1.10
2019-01-02T15:05:19.912Z,0.90
2019-01-02T15:08:09.616Z,0.70
2019-01-02T15:10:59.641Z,0.80
2019-01-02T15:13:49.764Z,1.03
2019-01-02T15:16:44.525Z,1.30
2019-01-02T15:19:31.141Z,0.87
2019-01-02T15:22:21.060Z,0.90
2019-01-02T15:25:11.439Z,1.37
2019-01-02T15:28:01.665Z,1.10
2019-01-02T15:30:51.824Z,1.83
2019-01-02T15:33:41.429Z,1.23
2019-01-02T15:36:30.888Z,1.00
2019-01-02T15:39:20.904Z,0.83
2019-01-02T15:42:10.981Z,0.97
2019-01-02T15:45:01.159Z,1.03
2019-01-02T15:47:51.000Z,0.90
2019-01-02T15:50:41.105Z,0.80
2019-01-02T15:53:30.783Z,1.07
2019-01-02T15:56:20.608Z,1.10
2019-01-02T15:59:10.730Z,0.90
2019-01-02T16:02:00.770Z,1.37
2019-01-02T16:04:51.005Z,1.50
2019-01-02T16:07:40.430Z,1.33
2019-01-02T16:10:30.712Z,1.07
2019-01-02T16:13:20.763Z,0.90
2019-01-02T16:22:54.591Z,1.87
2019-01-02T16:25:44.199Z,1.70
2019-01-02T16:28:34.291Z,2.70
2019-01-02T16:31:24.053Z,2.30
2019-01-02T16:34:13.645Z,1.63
2019-01-02T16:37:03.364Z,1.50
2019-01-02T16:39:53.511Z,2.10
2019-01-02T16:42:43.402Z,1.50
2019-01-02T16:45:33.559Z,2.50
2019-01-02T16:48:23.305Z,2.20
2019-01-02T16:51:13.334Z,1.83
2019-01-02T16:54:02.370Z,1.50
2019-01-02T16:56:52.016Z,1.63
2019-01-02T16:59:42.052Z,2.30
2019-01-02T17:02:31.612Z,2.27
2019-01-02T17:05:20.922Z,2.60
2019-01-02T17:08:10.600Z,2.37
2019-01-02T17:11:00.561Z,2.00
2019-01-02T17:13:49.876Z,1.90
2019-01-02T17:16:39.694Z,2.37
2019-01-02T17:19:29.830Z,2.27
2019-01-02T17:22:19.487Z,2.50
2019-01-02T17:25:10.392Z,2.50
2019-01-02T17:28:00.410Z,2.47
2019-01-02T17:30:49.895Z,2.70
2019-01-02T17:33:39.719Z,2.50
2019-01-02T17:36:29.565Z,1.77
2019-01-02T17:39:19.128Z,1.93
2019-01-02T17:42:08.798Z,1.77
2019-01-02T17:44:58.610Z,2.57
2019-01-02T17:47:48.163Z,1.40
2019-01-02T17:50:38.460Z,2.13
2019-01-02T17:53:28.592Z,2.10
2019-01-02T17:56:18.526Z,1.70
2019-01-02T17:59:08.156Z,1.50
2019-01-02T18:01:57.905Z,1.87
2019-01-02T18:04:47.703Z,2.17
2019-01-02T18:07:37.036Z,1.43
2019-01-02T18:10:27.338Z,1.57
2019-01-02T18:13:17.478Z,1.90
2019-01-02T18:16:07.161Z,1.50
2019-01-02T18:18:56.863Z,1.43
2019-01-02T18:21:46.610Z,1.13
2019-01-02T18:24:36.586Z,1.30
2019-01-02T18:27:26.620Z,1.17
2019-01-02T18:30:16.330Z,1.30
2019-01-02T18:33:06.604Z,1.20
2019-01-02T18:35:56.524Z,2.03
2019-01-02T18:38:46.070Z,1.27
2019-01-02T18:41:35.403Z,1.37
2019-01-02T18:44:25.231Z,1.90
2019-01-02T18:47:14.598Z,2.00
2019-01-02T18:50:04.696Z,1.43
2019-01-02T18:52:54.535Z,1.43
2019-01-02T18:55:44.693Z,1.67
2019-01-02T18:58:34.732Z,2.07
2019-01-02T19:01:24.426Z,1.73
2019-01-02T19:04:14.290Z,1.67
2019-01-02T19:07:03.572Z,1.20
2019-01-02T19:10:06.479Z,1.87
2019-01-02T19:12:56.606Z,1.40
2019-01-02T19:15:46.829Z,1.70
2019-01-02T19:18:36.209Z,1.83
2019-01-02T19:21:25.783Z,1.80
2019-01-02T19:27:19.185Z,1.30
2019-01-02T19:30:10.182Z,1.53
2019-01-02T19:32:59.999Z,1.07
2019-01-02T19:35:49.635Z,2.10
2019-01-02T19:38:39.061Z,1.50
2019-01-02T19:41:29.111Z,1.00
2019-01-02T19:44:19.103Z,1.47
2019-01-02T19:47:08.632Z,1.80
2019-01-02T19:49:58.717Z,1.20
2019-01-02T19:52:48.280Z,1.10
2019-01-02T19:55:38.154Z,1.10
2019-01-02T19:58:28.483Z,1.97
2019-01-02T20:01:18.547Z,1.30
2019-01-02T20:04:08.213Z,1.33
2019-01-02T20:06:57.954Z,1.23
2019-01-02T20:09:47.741Z,1.20
2019-01-02T20:12:38.831Z,0.97
2019-01-02T20:15:28.780Z,1.70
2019-01-02T20:18:18.227Z,1.70
2019-01-02T20:21:08.504Z,2.60
2019-01-02T20:23:57.968Z,1.70
2019-01-02T20:26:47.443Z,1.57
2019-01-02T20:29:37.535Z,1.30
2019-01-02T20:32:27.532Z,1.70
2019-01-02T20:35:17.482Z,1.40
2019-01-02T20:38:07.269Z,1.87
2019-01-02T20:40:57.379Z,1.73
2019-01-02T20:43:47.175Z,1.37
2019-01-02T20:46:36.889Z,1.80
2019-01-02T20:49:26.422Z,1.20
2019-01-02T20:52:16.508Z,2.10
2019-01-02T20:55:06.766Z,2.10
2019-01-02T20:57:56.587Z,1.97
2019-01-02T21:00:46.544Z,1.40
2019-01-02T21:03:36.269Z,1.57
2019-01-02T21:06:26.499Z,2.10
2019-01-02T21:09:15.937Z,1.60
2019-01-02T21:12:05.605Z,1.20
2019-01-02T21:14:55.915Z,1.60
2019-01-02T21:17:45.554Z,1.63
2019-01-02T21:20:35.114Z,2.77
2019-01-02T21:23:24.647Z,1.73
2019-01-02T21:26:14.910Z,2.37
2019-01-02T21:29:05.255Z,2.93
2019-01-02T21:31:55.058Z,1.80
2019-01-02T21:34:45.126Z,2.50
2019-01-02T21:37:35.204Z,1.80
2019-01-02T21:40:24.782Z,7.00
2019-01-02T21:43:14.410Z,1.73
2019-01-02T21:46:04.405Z,6.10
2019-01-02T21:48:53.995Z,2.20
2019-01-02T21:51:43.788Z,2.20
2019-01-02T21:54:33.771Z,2.30
2019-01-02T21:57:24.943Z,1.97
2019-01-02T22:00:16.740Z,1.30
2019-01-02T22:03:07.920Z,2.20
2019-01-02T22:05:58.001Z,2.13
2019-01-02T22:08:47.844Z,1.93
2019-01-02T22:11:39.074Z,1.80
2019-01-02T22:14:29.048Z,1.33
2019-01-02T22:17:19.004Z,1.80
2019-01-02T22:20:09.760Z,2.10
2019-01-02T22:22:59.953Z,1.60
2019-01-02T22:25:49.085Z,2.40
2019-01-02T22:28:38.459Z,1.47
2019-01-02T22:31:28.587Z,1.50
2019-01-02T22:34:18.335Z,1.97
2019-01-02T22:37:07.874Z,1.83
2019-01-02T22:39:59.043Z,1.13
2019-01-02T22:42:49.172Z,1.33
2019-01-02T22:45:39.180Z,1.87
2019-01-02T22:48:29.146Z,2.10
2019-01-02T22:51:19.096Z,1.67
2019-01-02T22:54:10.837Z,2.13
2019-01-02T22:57:00.251Z,1.60
2019-01-02T22:59:49.894Z,1.43
2019-01-02T23:03:01.083Z,2.60
2019-01-02T23:06:19.329Z,1.50
2019-01-02T23:09:19.868Z,1.50
2019-01-02T23:12:27.714Z,1.97
2019-01-02T23:15:35.078Z,1.47
2019-01-02T23:18:43.845Z,1.90
2019-01-02T23:21:55.160Z,1.67
2019-01-02T23:24:56.768Z,2.00
2019-01-02T23:28:24.018Z,2.67
2019-01-02T23:31:35.284Z,1.27
2019-01-02T23:34:42.704Z,1.83
2019-01-02T23:37:51.756Z,1.80
2019-01-02T23:40:57.806Z,1.67
2019-01-02T23:44:06.456Z,2.03
2019-01-02T23:47:30.275Z,2.40
2019-01-02T23:50:44.723Z,1.87
2019-01-02T23:53:51.746Z,1.33
2019-01-02T23:57:15.790Z,1.53
